sensor_id;sensor_type;location;lat;lon;timestamp;P1;durP1;ratioP1;P2;durP2;ratioP2
54259;SDS011;40172;53.022;7.012;2023-01-05T00:01:46;32.72;;;5.50;;
54259;SDS011;40172;53.022;7.012;2023-01-05T00:04:12;29.98;;;4.78;;
54259;SDS011;40172;53.022;7.012;2023-01-05T00:06:38;29.30;;;4.38;;
54259;SDS011;40172;53.022;7.012;2023-01-05T00:09:07;29.30;;;4.60;;
54259;SDS011;40172;53.022;7.012;2023-01-05T00:11:35;26.38;;;4.93;;
54259;SDS011;40172;53.022;7.012;2023-01-05T00:17:05;29.45;;;4.63;;
54259;SDS011;40172;53.022;7.012;2023-01-05T00:19:52;32.38;;;4.57;;
54259;SDS011;40172;53.022;7.012;2023-01-05T00:22:39;23.08;;;4.22;;
54259;SDS011;40172;53.022;7.012;2023-01-05T00:27:48;21.58;;;4.38;;
54259;SDS011;40172;53.022;7.012;2023-01-05T00:30:17;18.65;;;3.78;;
54259;SDS011;40172;53.022;7.012;2023-01-05T00:32:44;21.42;;;4.07;;
54259;SDS011;40172;53.022;7.012;2023-01-05T00:35:11;26.90;;;4.90;;
54259;SDS011;40172;53.022;7.012;2023-01-05T00:37:38;27.10;;;4.65;;
54259;SDS011;40172;53.022;7.012;2023-01-05T00:40:05;28.52;;;4.90;;
54259;SDS011;40172;53.022;7.012;2023-01-05T00:42:32;29.17;;;4.63;;
54259;SDS011;40172;53.022;7.012;2023-01-05T00:44:58;29.65;;;5.47;;
54259;SDS011;40172;53.022;7.012;2023-01-05T00:47:23;27.60;;;4.85;;
54259;SDS011;40172;53.022;7.012;2023-01-05T00:49:49;23.58;;;4.40;;
54259;SDS011;40172;53.022;7.012;2023-01-05T00:52:17;27.45;;;4.85;;
54259;SDS011;40172;53.022;7.012;2023-01-05T00:54:43;23.10;;;4.38;;
54259;SDS011;40172;53.022;7.012;2023-01-05T00:57:12;25.95;;;4.43;;
54259;SDS011;40172;53.022;7.012;2023-01-05T00:59:38;26.00;;;4.55;;
54259;SDS011;40172;53.022;7.012;2023-01-05T01:02:04;27.40;;;4.53;;
54259;SDS011;40172;53.022;7.012;2023-01-05T01:04:30;32.00;;;5.15;;
54259;SDS011;40172;53.022;7.012;2023-01-05T01:06:57;27.20;;;5.10;;
54259;SDS011;40172;53.022;7.012;2023-01-05T01:09:22;25.10;;;4.55;;
54259;SDS011;40172;53.022;7.012;2023-01-05T01:11:48;23.58;;;4.50;;
54259;SDS011;40172;53.022;7.012;2023-01-05T01:14:14;29.88;;;5.20;;
54259;SDS011;40172;53.022;7.012;2023-01-05T01:16:40;35.38;;;5.57;;
54259;SDS011;40172;53.022;7.012;2023-01-05T01:19:13;29.75;;;5.15;;
54259;SDS011;40172;53.022;7.012;2023-01-05T01:21:44;33.15;;;5.65;;
54259;SDS011;40172;53.022;7.012;2023-01-05T01:24:14;31.35;;;6.03;;
54259;SDS011;40172;53.022;7.012;2023-01-05T01:26:41;28.67;;;4.93;;
54259;SDS011;40172;53.022;7.012;2023-01-05T01:29:07;37.03;;;6.22;;
54259;SDS011;40172;53.022;7.012;2023-01-05T01:31:33;29.00;;;5.35;;
54259;SDS011;40172;53.022;7.012;2023-01-05T01:33:59;27.50;;;5.18;;
54259;SDS011;40172;53.022;7.012;2023-01-05T01:36:25;33.00;;;5.40;;
54259;SDS011;40172;53.022;7.012;2023-01-05T01:38:50;27.67;;;5.03;;
54259;SDS011;40172;53.022;7.012;2023-01-05T01:41:16;28.42;;;4.85;;
54259;SDS011;40172;53.022;7.012;2023-01-05T01:43:49;29.30;;;4.80;;
54259;SDS011;40172;53.022;7.012;2023-01-05T01:46:19;34.67;;;5.47;;
54259;SDS011;40172;53.022;7.012;2023-01-05T01:48:47;30.77;;;5.40;;
54259;SDS011;40172;53.022;7.012;2023-01-05T01:51:18;21.88;;;4.70;;
54259;SDS011;40172;53.022;7.012;2023-01-05T01:56:20;26.13;;;5.07;;
54259;SDS011;40172;53.022;7.012;2023-01-05T01:58:47;27.95;;;5.13;;
54259;SDS011;40172;53.022;7.012;2023-01-05T02:01:13;32.08;;;6.18;;
54259;SDS011;40172;53.022;7.012;2023-01-05T02:03:39;27.20;;;4.97;;
54259;SDS011;40172;53.022;7.012;2023-01-05T02:06:05;29.20;;;5.28;;
54259;SDS011;40172;53.022;7.012;2023-01-05T02:08:32;32.72;;;5.63;;
54259;SDS011;40172;53.022;7.012;2023-01-05T02:13:58;27.70;;;5.45;;
54259;SDS011;40172;53.022;7.012;2023-01-05T02:28:18;28.50;;;5.35;;
54259;SDS011;40172;53.022;7.012;2023-01-05T02:31:21;28.38;;;5.35;;
54259;SDS011;40172;53.022;7.012;2023-01-05T02:34:18;27.92;;;5.15;;
54259;SDS011;40172;53.022;7.012;2023-01-05T02:36:53;29.00;;;5.88;;
54259;SDS011;40172;53.022;7.012;2023-01-05T02:39:35;27.08;;;5.18;;
54259;SDS011;40172;53.022;7.012;2023-01-05T02:42:07;29.85;;;5.50;;
54259;SDS011;40172;53.022;7.012;2023-01-05T02:44:37;30.15;;;5.95;;
54259;SDS011;40172;53.022;7.012;2023-01-05T02:47:03;33.03;;;6.13;;
54259;SDS011;40172;53.022;7.012;2023-01-05T02:49:32;30.05;;;5.40;;
54259;SDS011;40172;53.022;7.012;2023-01-05T02:52:02;28.20;;;5.68;;
54259;SDS011;40172;53.022;7.012;2023-01-05T02:54:31;25.60;;;4.68;;
54259;SDS011;40172;53.022;7.012;2023-01-05T02:57:06;29.30;;;4.90;;
54259;SDS011;40172;53.022;7.012;2023-01-05T02:59:46;27.45;;;5.10;;
54259;SDS011;40172;53.022;7.012;2023-01-05T03:02:26;27.13;;;5.18;;
54259;SDS011;40172;53.022;7.012;2023-01-05T03:04:55;28.33;;;5.53;;
54259;SDS011;40172;53.022;7.012;2023-01-05T03:07:29;27.65;;;5.35;;
54259;SDS011;40172;53.022;7.012;2023-01-05T03:09:57;27.17;;;5.70;;
54259;SDS011;40172;53.022;7.012;2023-01-05T03:12:43;28.15;;;5.75;;
54259;SDS011;40172;53.022;7.012;2023-01-05T03:15:31;29.33;;;5.72;;
54259;SDS011;40172;53.022;7.012;2023-01-05T03:18:00;35.08;;;5.57;;
54259;SDS011;40172;53.022;7.012;2023-01-05T03:20:31;25.77;;;5.53;;
54259;SDS011;40172;53.022;7.012;2023-01-05T03:22:59;31.90;;;5.93;;
54259;SDS011;40172;53.022;7.012;2023-01-05T03:25:46;29.73;;;5.55;;
54259;SDS011;40172;53.022;7.012;2023-01-05T03:28:39;27.33;;;4.97;;
54259;SDS011;40172;53.022;7.012;2023-01-05T03:37:38;32.63;;;6.10;;
54259;SDS011;40172;53.022;7.012;2023-01-05T03:40:19;38.50;;;5.95;;
54259;SDS011;40172;53.022;7.012;2023-01-05T03:42:48;26.05;;;5.43;;
54259;SDS011;40172;53.022;7.012;2023-01-05T03:45:14;33.95;;;5.57;;
54259;SDS011;40172;53.022;7.012;2023-01-05T03:47:41;31.05;;;5.53;;
54259;SDS011;40172;53.022;7.012;2023-01-05T03:50:06;31.35;;;5.75;;
54259;SDS011;40172;53.022;7.012;2023-01-05T03:52:33;30.10;;;5.32;;
54259;SDS011;40172;53.022;7.012;2023-01-05T03:54:58;30.10;;;5.25;;
54259;SDS011;40172;53.022;7.012;2023-01-05T03:57:24;26.23;;;5.05;;
54259;SDS011;40172;53.022;7.012;2023-01-05T03:59:49;29.17;;;5.22;;
54259;SDS011;40172;53.022;7.012;2023-01-05T04:02:15;23.88;;;4.90;;
54259;SDS011;40172;53.022;7.012;2023-01-05T04:04:40;29.05;;;5.13;;
54259;SDS011;40172;53.022;7.012;2023-01-05T04:07:06;28.15;;;4.72;;
54259;SDS011;40172;53.022;7.012;2023-01-05T04:09:32;35.08;;;6.05;;
54259;SDS011;40172;53.022;7.012;2023-01-05T04:11:58;33.63;;;5.45;;
54259;SDS011;40172;53.022;7.012;2023-01-05T04:14:24;33.67;;;5.78;;
54259;SDS011;40172;53.022;7.012;2023-01-05T04:16:50;28.98;;;5.13;;
54259;SDS011;40172;53.022;7.012;2023-01-05T04:19:15;26.75;;;5.05;;
54259;SDS011;40172;53.022;7.012;2023-01-05T04:21:44;31.45;;;5.43;;
54259;SDS011;40172;53.022;7.012;2023-01-05T04:24:10;25.92;;;5.03;;
54259;SDS011;40172;53.022;7.012;2023-01-05T04:26:36;29.08;;;6.65;;
54259;SDS011;40172;53.022;7.012;2023-01-05T04:29:06;30.10;;;5.45;;
54259;SDS011;40172;53.022;7.012;2023-01-05T04:31:31;30.83;;;5.80;;
54259;SDS011;40172;53.022;7.012;2023-01-05T04:33:57;26.45;;;5.45;;
54259;SDS011;40172;53.022;7.012;2023-01-05T04:36:23;28.80;;;5.15;;
54259;SDS011;40172;53.022;7.012;2023-01-05T04:38:48;32.67;;;6.00;;
54259;SDS011;40172;53.022;7.012;2023-01-05T04:41:14;35.90;;;5.97;;
54259;SDS011;40172;53.022;7.012;2023-01-05T04:43:42;35.10;;;5.78;;
54259;SDS011;40172;53.022;7.012;2023-01-05T04:46:08;27.27;;;5.40;;
54259;SDS011;40172;53.022;7.012;2023-01-05T04:48:33;30.65;;;6.05;;
54259;SDS011;40172;53.022;7.012;2023-01-05T04:50:59;32.60;;;5.50;;
54259;SDS011;40172;53.022;7.012;2023-01-05T04:53:25;29.88;;;5.28;;
54259;SDS011;40172;53.022;7.012;2023-01-05T04:55:51;26.92;;;5.40;;
54259;SDS011;40172;53.022;7.012;2023-01-05T04:58:16;34.92;;;6.40;;
54259;SDS011;40172;53.022;7.012;2023-01-05T05:00:42;32.00;;;5.47;;
54259;SDS011;40172;53.022;7.012;2023-01-05T05:03:08;30.70;;;6.10;;
54259;SDS011;40172;53.022;7.012;2023-01-05T05:05:34;33.08;;;5.63;;
54259;SDS011;40172;53.022;7.012;2023-01-05T05:07:59;31.65;;;6.18;;
54259;SDS011;40172;53.022;7.012;2023-01-05T05:10:25;32.50;;;6.15;;
54259;SDS011;40172;53.022;7.012;2023-01-05T05:12:50;32.95;;;5.65;;
54259;SDS011;40172;53.022;7.012;2023-01-05T05:15:16;29.15;;;5.22;;
54259;SDS011;40172;53.022;7.012;2023-01-05T05:17:42;30.17;;;5.70;;
54259;SDS011;40172;53.022;7.012;2023-01-05T05:20:07;31.10;;;5.32;;
54259;SDS011;40172;53.022;7.012;2023-01-05T05:22:33;28.35;;;5.35;;
54259;SDS011;40172;53.022;7.012;2023-01-05T05:24:59;28.00;;;4.68;;
54259;SDS011;40172;53.022;7.012;2023-01-05T05:27:24;30.50;;;5.05;;
54259;SDS011;40172;53.022;7.012;2023-01-05T05:29:50;30.80;;;5.50;;
54259;SDS011;40172;53.022;7.012;2023-01-05T05:32:15;29.65;;;4.90;;
54259;SDS011;40172;53.022;7.012;2023-01-05T05:34:41;34.33;;;6.13;;
54259;SDS011;40172;53.022;7.012;2023-01-05T05:37:07;28.90;;;5.32;;
54259;SDS011;40172;53.022;7.012;2023-01-05T05:39:32;31.80;;;5.40;;
54259;SDS011;40172;53.022;7.012;2023-01-05T05:41:58;29.05;;;5.28;;
54259;SDS011;40172;53.022;7.012;2023-01-05T05:44:23;23.70;;;4.63;;
54259;SDS011;40172;53.022;7.012;2023-01-05T05:46:49;25.73;;;4.88;;
54259;SDS011;40172;53.022;7.012;2023-01-05T05:49:14;24.83;;;5.05;;
54259;SDS011;40172;53.022;7.012;2023-01-05T05:51:40;27.55;;;5.30;;
54259;SDS011;40172;53.022;7.012;2023-01-05T05:54:06;28.45;;;5.10;;
54259;SDS011;40172;53.022;7.012;2023-01-05T05:56:31;28.15;;;4.90;;
54259;SDS011;40172;53.022;7.012;2023-01-05T05:58:57;27.88;;;5.53;;
54259;SDS011;40172;53.022;7.012;2023-01-05T06:01:22;28.30;;;4.90;;
54259;SDS011;40172;53.022;7.012;2023-01-05T06:03:48;28.60;;;5.68;;
54259;SDS011;40172;53.022;7.012;2023-01-05T06:06:14;29.52;;;5.38;;
54259;SDS011;40172;53.022;7.012;2023-01-05T06:08:39;29.83;;;5.18;;
54259;SDS011;40172;53.022;7.012;2023-01-05T06:11:05;33.03;;;5.55;;
54259;SDS011;40172;53.022;7.012;2023-01-05T06:13:32;28.55;;;5.13;;
54259;SDS011;40172;53.022;7.012;2023-01-05T06:15:57;32.05;;;5.53;;
54259;SDS011;40172;53.022;7.012;2023-01-05T06:18:23;26.15;;;4.97;;
54259;SDS011;40172;53.022;7.012;2023-01-05T06:20:48;30.85;;;6.13;;
54259;SDS011;40172;53.022;7.012;2023-01-05T06:23:14;38.55;;;6.20;;
54259;SDS011;40172;53.022;7.012;2023-01-05T06:25:40;31.38;;;5.88;;
54259;SDS011;40172;53.022;7.012;2023-01-05T06:28:05;33.50;;;5.68;;
54259;SDS011;40172;53.022;7.012;2023-01-05T06:30:31;32.90;;;5.65;;
54259;SDS011;40172;53.022;7.012;2023-01-05T06:32:56;31.83;;;5.68;;
54259;SDS011;40172;53.022;7.012;2023-01-05T06:35:22;30.92;;;5.95;;
54259;SDS011;40172;53.022;7.012;2023-01-05T06:37:48;28.50;;;5.10;;
54259;SDS011;40172;53.022;7.012;2023-01-05T06:40:13;31.02;;;5.57;;
54259;SDS011;40172;53.022;7.012;2023-01-05T06:42:39;39.25;;;5.93;;
54259;SDS011;40172;53.022;7.012;2023-01-05T06:45:06;28.20;;;5.22;;
54259;SDS011;40172;53.022;7.012;2023-01-05T06:47:34;28.10;;;4.80;;
54259;SDS011;40172;53.022;7.012;2023-01-05T06:50:00;28.83;;;5.60;;
54259;SDS011;40172;53.022;7.012;2023-01-05T06:52:25;35.30;;;5.90;;
54259;SDS011;40172;53.022;7.012;2023-01-05T06:54:51;26.52;;;5.28;;
54259;SDS011;40172;53.022;7.012;2023-01-05T06:57:16;27.05;;;5.05;;
54259;SDS011;40172;53.022;7.012;2023-01-05T06:59:42;29.75;;;5.57;;
54259;SDS011;40172;53.022;7.012;2023-01-05T07:02:15;33.78;;;5.75;;
54259;SDS011;40172;53.022;7.012;2023-01-05T07:04:41;36.42;;;5.43;;
54259;SDS011;40172;53.022;7.012;2023-01-05T07:07:08;29.50;;;5.32;;
54259;SDS011;40172;53.022;7.012;2023-01-05T07:09:37;29.08;;;4.90;;
54259;SDS011;40172;53.022;7.012;2023-01-05T07:12:02;33.67;;;5.55;;
54259;SDS011;40172;53.022;7.012;2023-01-05T07:14:28;30.58;;;4.65;;
54259;SDS011;40172;53.022;7.012;2023-01-05T07:16:54;26.17;;;4.93;;
54259;SDS011;40172;53.022;7.012;2023-01-05T07:19:19;33.13;;;5.25;;
54259;SDS011;40172;53.022;7.012;2023-01-05T07:21:45;27.63;;;4.85;;
54259;SDS011;40172;53.022;7.012;2023-01-05T07:24:11;33.17;;;5.35;;
54259;SDS011;40172;53.022;7.012;2023-01-05T07:26:36;27.33;;;5.38;;
54259;SDS011;40172;53.022;7.012;2023-01-05T07:29:02;28.50;;;5.70;;
54259;SDS011;40172;53.022;7.012;2023-01-05T07:31:28;29.42;;;5.75;;
54259;SDS011;40172;53.022;7.012;2023-01-05T07:33:53;24.88;;;5.05;;
54259;SDS011;40172;53.022;7.012;2023-01-05T07:36:19;30.10;;;6.03;;
54259;SDS011;40172;53.022;7.012;2023-01-05T07:38:44;39.67;;;7.07;;
54259;SDS011;40172;53.022;7.012;2023-01-05T07:41:10;27.92;;;5.03;;
54259;SDS011;40172;53.022;7.012;2023-01-05T07:43:35;27.20;;;5.55;;
54259;SDS011;40172;53.022;7.012;2023-01-05T07:46:02;27.90;;;5.55;;
54259;SDS011;40172;53.022;7.012;2023-01-05T07:48:28;27.80;;;5.40;;
54259;SDS011;40172;53.022;7.012;2023-01-05T07:51:01;30.50;;;5.10;;
54259;SDS011;40172;53.022;7.012;2023-01-05T07:55:55;27.55;;;4.85;;
54259;SDS011;40172;53.022;7.012;2023-01-05T07:58:25;24.48;;;4.68;;
54259;SDS011;40172;53.022;7.012;2023-01-05T08:00:51;24.27;;;4.07;;
54259;SDS011;40172;53.022;7.012;2023-01-05T08:03:20;19.83;;;4.70;;
54259;SDS011;40172;53.022;7.012;2023-01-05T08:05:47;22.73;;;5.07;;
54259;SDS011;40172;53.022;7.012;2023-01-05T08:08:13;29.50;;;5.78;;
54259;SDS011;40172;53.022;7.012;2023-01-05T08:10:40;27.55;;;5.05;;
54259;SDS011;40172;53.022;7.012;2023-01-05T08:13:07;31.60;;;5.20;;
54259;SDS011;40172;53.022;7.012;2023-01-05T08:15:53;28.90;;;5.05;;
54259;SDS011;40172;53.022;7.012;2023-01-05T08:18:20;27.75;;;5.40;;
54259;SDS011;40172;53.022;7.012;2023-01-05T08:20:53;23.45;;;4.53;;
54259;SDS011;40172;53.022;7.012;2023-01-05T08:23:28;24.50;;;4.65;;
54259;SDS011;40172;53.022;7.012;2023-01-05T08:25:55;23.00;;;4.25;;
54259;SDS011;40172;53.022;7.012;2023-01-05T08:28:24;23.30;;;4.57;;
54259;SDS011;40172;53.022;7.012;2023-01-05T08:30:50;22.70;;;4.43;;
54259;SDS011;40172;53.022;7.012;2023-01-05T08:33:15;26.17;;;4.72;;
54259;SDS011;40172;53.022;7.012;2023-01-05T08:35:42;28.60;;;4.90;;
54259;SDS011;40172;53.022;7.012;2023-01-05T08:38:08;30.70;;;5.05;;
54259;SDS011;40172;53.022;7.012;2023-01-05T08:40:35;29.00;;;5.20;;
54259;SDS011;40172;53.022;7.012;2023-01-05T08:43:02;25.35;;;4.18;;
54259;SDS011;40172;53.022;7.012;2023-01-05T08:45:28;28.00;;;5.10;;
54259;SDS011;40172;53.022;7.012;2023-01-05T08:47:54;22.77;;;4.50;;
54259;SDS011;40172;53.022;7.012;2023-01-05T08:50:19;29.67;;;4.68;;
54259;SDS011;40172;53.022;7.012;2023-01-05T08:52:45;26.17;;;4.78;;
54259;SDS011;40172;53.022;7.012;2023-01-05T08:55:11;24.65;;;4.20;;
54259;SDS011;40172;53.022;7.012;2023-01-05T08:57:36;25.85;;;4.65;;
54259;SDS011;40172;53.022;7.012;2023-01-05T09:00:02;25.20;;;4.75;;
54259;SDS011;40172;53.022;7.012;2023-01-05T09:02:29;29.15;;;5.03;;
54259;SDS011;40172;53.022;7.012;2023-01-05T09:04:55;25.67;;;4.50;;
54259;SDS011;40172;53.022;7.012;2023-01-05T09:07:21;26.25;;;4.60;;
54259;SDS011;40172;53.022;7.012;2023-01-05T09:09:46;28.45;;;4.82;;
54259;SDS011;40172;53.022;7.012;2023-01-05T09:12:12;21.92;;;4.55;;
54259;SDS011;40172;53.022;7.012;2023-01-05T09:14:38;32.08;;;5.32;;
54259;SDS011;40172;53.022;7.012;2023-01-05T09:17:04;34.17;;;5.43;;
54259;SDS011;40172;53.022;7.012;2023-01-05T09:19:31;25.17;;;4.57;;
54259;SDS011;40172;53.022;7.012;2023-01-05T09:21:56;26.45;;;4.97;;
54259;SDS011;40172;53.022;7.012;2023-01-05T09:24:22;25.85;;;4.68;;
54259;SDS011;40172;53.022;7.012;2023-01-05T09:26:48;23.95;;;4.57;;
54259;SDS011;40172;53.022;7.012;2023-01-05T09:29:16;28.88;;;4.60;;
54259;SDS011;40172;53.022;7.012;2023-01-05T09:31:42;25.67;;;4.28;;
54259;SDS011;40172;53.022;7.012;2023-01-05T09:34:08;25.90;;;4.90;;
54259;SDS011;40172;53.022;7.012;2023-01-05T09:36:35;31.25;;;5.75;;
54259;SDS011;40172;53.022;7.012;2023-01-05T09:39:03;18.13;;;3.72;;
54259;SDS011;40172;53.022;7.012;2023-01-05T09:46:55;21.77;;;4.05;;
54259;SDS011;40172;53.022;7.012;2023-01-05T09:49:34;23.95;;;4.38;;
54259;SDS011;40172;53.022;7.012;2023-01-05T09:52:01;24.63;;;4.35;;
54259;SDS011;40172;53.022;7.012;2023-01-05T09:54:33;29.02;;;4.50;;
54259;SDS011;40172;53.022;7.012;2023-01-05T09:57:00;24.73;;;4.28;;
54259;SDS011;40172;53.022;7.012;2023-01-05T09:59:28;25.30;;;4.30;;
54259;SDS011;40172;53.022;7.012;2023-01-05T10:02:45;28.38;;;4.28;;
54259;SDS011;40172;53.022;7.012;2023-01-05T10:04:54;24.58;;;4.30;;
54259;SDS011;40172;53.022;7.012;2023-01-05T10:07:30;25.27;;;4.50;;
54259;SDS011;40172;53.022;7.012;2023-01-05T10:13:00;24.98;;;4.00;;
54259;SDS011;40172;53.022;7.012;2023-01-05T10:15:53;25.30;;;4.63;;
54259;SDS011;40172;53.022;7.012;2023-01-05T10:18:20;21.77;;;4.10;;
54259;SDS011;40172;53.022;7.012;2023-01-05T10:21:02;26.02;;;4.20;;
54259;SDS011;40172;53.022;7.012;2023-01-05T10:26:18;26.08;;;4.75;;
54259;SDS011;40172;53.022;7.012;2023-01-05T10:31:45;31.60;;;5.03;;
54259;SDS011;40172;53.022;7.012;2023-01-05T10:37:21;25.50;;;4.38;;
54259;SDS011;40172;53.022;7.012;2023-01-05T10:40:18;22.77;;;4.50;;
54259;SDS011;40172;53.022;7.012;2023-01-05T10:45:52;29.35;;;5.70;;
54259;SDS011;40172;53.022;7.012;2023-01-05T10:48:18;26.75;;;4.22;;
54259;SDS011;40172;53.022;7.012;2023-01-05T10:50:50;28.20;;;4.50;;
54259;SDS011;40172;53.022;7.012;2023-01-05T10:53:22;34.80;;;5.30;;
54259;SDS011;40172;53.022;7.012;2023-01-05T10:55:53;27.33;;;5.03;;
54259;SDS011;40172;53.022;7.012;2023-01-05T10:58:29;24.75;;;4.38;;
54259;SDS011;40172;53.022;7.012;2023-01-05T11:01:24;28.10;;;4.70;;
54259;SDS011;40172;53.022;7.012;2023-01-05T11:06:39;22.80;;;4.00;;
54259;SDS011;40172;53.022;7.012;2023-01-05T11:12:02;20.58;;;3.70;;
54259;SDS011;40172;53.022;7.012;2023-01-05T11:14:31;28.35;;;4.32;;
54259;SDS011;40172;53.022;7.012;2023-01-05T11:17:19;27.20;;;4.95;;
54259;SDS011;40172;53.022;7.012;2023-01-05T11:19:51;22.85;;;3.90;;
54259;SDS011;40172;53.022;7.012;2023-01-05T11:22:35;25.38;;;4.15;;
54259;SDS011;40172;53.022;7.012;2023-01-05T11:27:44;21.17;;;3.22;;
54259;SDS011;40172;53.022;7.012;2023-01-05T11:32:39;28.63;;;4.47;;
54259;SDS011;40172;53.022;7.012;2023-01-05T11:38:02;22.52;;;3.65;;
54259;SDS011;40172;53.022;7.012;2023-01-05T11:40:29;20.20;;;3.50;;
54259;SDS011;40172;53.022;7.012;2023-01-05T11:42:57;20.63;;;3.42;;
54259;SDS011;40172;53.022;7.012;2023-01-05T11:45:24;27.95;;;3.88;;
54259;SDS011;40172;53.022;7.012;2023-01-05T11:48:01;21.08;;;3.17;;
54259;SDS011;40172;53.022;7.012;2023-01-05T11:50:37;19.00;;;3.47;;
54259;SDS011;40172;53.022;7.012;2023-01-05T11:55:59;24.48;;;3.90;;
54259;SDS011;40172;53.022;7.012;2023-01-05T11:58:30;28.05;;;4.90;;
54259;SDS011;40172;53.022;7.012;2023-01-05T12:01:04;27.50;;;4.05;;
54259;SDS011;40172;53.022;7.012;2023-01-05T12:17:19;18.25;;;3.60;;
54259;SDS011;40172;53.022;7.012;2023-01-05T12:25:54;18.90;;;3.40;;
54259;SDS011;40172;53.022;7.012;2023-01-05T12:28:36;23.23;;;3.95;;
54259;SDS011;40172;53.022;7.012;2023-01-05T12:31:26;19.17;;;3.53;;
54259;SDS011;40172;53.022;7.012;2023-01-05T12:34:02;22.80;;;3.47;;
54259;SDS011;40172;53.022;7.012;2023-01-05T12:42:43;22.35;;;3.58;;
54259;SDS011;40172;53.022;7.012;2023-01-05T12:50:39;11.35;;;2.50;;
54259;SDS011;40172;53.022;7.012;2023-01-05T12:53:31;10.98;;;2.55;;
54259;SDS011;40172;53.022;7.012;2023-01-05T12:56:07;12.95;;;2.28;;
54259;SDS011;40172;53.022;7.012;2023-01-05T12:58:39;11.85;;;2.40;;
54259;SDS011;40172;53.022;7.012;2023-01-05T13:01:15;15.63;;;2.80;;
54259;SDS011;40172;53.022;7.012;2023-01-05T13:06:14;12.23;;;2.58;;
54259;SDS011;40172;53.022;7.012;2023-01-05T13:08:54;17.02;;;2.60;;
54259;SDS011;40172;53.022;7.012;2023-01-05T13:11:29;19.70;;;2.88;;
54259;SDS011;40172;53.022;7.012;2023-01-05T13:16:37;16.73;;;2.90;;
54259;SDS011;40172;53.022;7.012;2023-01-05T13:19:27;19.17;;;3.30;;
54259;SDS011;40172;53.022;7.012;2023-01-05T13:22:00;23.55;;;2.95;;
54259;SDS011;40172;53.022;7.012;2023-01-05T13:24:43;20.08;;;3.03;;
54259;SDS011;40172;53.022;7.012;2023-01-05T13:27:16;17.60;;;3.10;;
54259;SDS011;40172;53.022;7.012;2023-01-05T13:29:46;19.48;;;3.67;;
54259;SDS011;40172;53.022;7.012;2023-01-05T13:46:43;21.38;;;3.75;;
54259;SDS011;40172;53.022;7.012;2023-01-05T13:52:16;25.00;;;4.22;;
54259;SDS011;40172;53.022;7.012;2023-01-05T13:54:54;24.52;;;4.55;;
54259;SDS011;40172;53.022;7.012;2023-01-05T13:57:26;22.90;;;4.32;;
54259;SDS011;40172;53.022;7.012;2023-01-05T13:59:56;25.73;;;4.22;;
54259;SDS011;40172;53.022;7.012;2023-01-05T14:02:29;21.70;;;3.92;;
54259;SDS011;40172;53.022;7.012;2023-01-05T14:05:02;22.95;;;3.78;;
54259;SDS011;40172;53.022;7.012;2023-01-05T14:07:38;27.50;;;4.13;;
54259;SDS011;40172;53.022;7.012;2023-01-05T14:10:04;32.40;;;5.10;;
54259;SDS011;40172;53.022;7.012;2023-01-05T14:12:48;30.85;;;5.28;;
54259;SDS011;40172;53.022;7.012;2023-01-05T14:20:38;23.10;;;4.35;;
54259;SDS011;40172;53.022;7.012;2023-01-05T14:25:59;25.48;;;4.53;;
54259;SDS011;40172;53.022;7.012;2023-01-05T14:31:45;23.20;;;4.30;;
54259;SDS011;40172;53.022;7.012;2023-01-05T14:34:00;28.05;;;4.53;;
54259;SDS011;40172;53.022;7.012;2023-01-05T14:36:38;27.05;;;5.15;;
54259;SDS011;40172;53.022;7.012;2023-01-05T14:39:27;29.30;;;4.95;;
54259;SDS011;40172;53.022;7.012;2023-01-05T14:41:58;35.05;;;5.43;;
54259;SDS011;40172;53.022;7.012;2023-01-05T14:44:34;34.75;;;5.13;;
54259;SDS011;40172;53.022;7.012;2023-01-05T14:47:09;25.05;;;4.38;;
54259;SDS011;40172;53.022;7.012;2023-01-05T14:49:36;32.53;;;5.70;;
54259;SDS011;40172;53.022;7.012;2023-01-05T14:52:12;29.85;;;5.28;;
54259;SDS011;40172;53.022;7.012;2023-01-05T14:57:19;28.83;;;4.85;;
54259;SDS011;40172;53.022;7.012;2023-01-05T14:59:48;30.75;;;5.35;;
54259;SDS011;40172;53.022;7.012;2023-01-05T15:02:20;27.83;;;5.30;;
54259;SDS011;40172;53.022;7.012;2023-01-05T15:04:52;27.55;;;5.40;;
54259;SDS011;40172;53.022;7.012;2023-01-05T15:07:38;34.30;;;5.68;;
54259;SDS011;40172;53.022;7.012;2023-01-05T15:25:13;29.55;;;6.40;;
54259;SDS011;40172;53.022;7.012;2023-01-05T15:33:08;33.05;;;6.68;;
54259;SDS011;40172;53.022;7.012;2023-01-05T15:35:41;37.03;;;6.70;;
54259;SDS011;40172;53.022;7.012;2023-01-05T15:38:21;42.05;;;6.32;;
54259;SDS011;40172;53.022;7.012;2023-01-05T15:40:51;30.92;;;5.70;;
54259;SDS011;40172;53.022;7.012;2023-01-05T15:45:49;33.58;;;6.20;;
54259;SDS011;40172;53.022;7.012;2023-01-05T15:48:20;38.45;;;6.47;;
54259;SDS011;40172;53.022;7.012;2023-01-05T15:50:52;33.53;;;6.13;;
54259;SDS011;40172;53.022;7.012;2023-01-05T15:53:32;34.78;;;6.25;;
54259;SDS011;40172;53.022;7.012;2023-01-05T15:56:29;38.65;;;6.55;;
54259;SDS011;40172;53.022;7.012;2023-01-05T15:59:00;36.78;;;6.90;;
54259;SDS011;40172;53.022;7.012;2023-01-05T16:01:28;34.67;;;6.30;;
54259;SDS011;40172;53.022;7.012;2023-01-05T16:04:04;44.40;;;6.47;;
54259;SDS011;40172;53.022;7.012;2023-01-05T16:06:31;41.13;;;7.35;;
54259;SDS011;40172;53.022;7.012;2023-01-05T16:08:58;36.75;;;6.53;;
54259;SDS011;40172;53.022;7.012;2023-01-05T16:11:41;30.50;;;5.93;;
54259;SDS011;40172;53.022;7.012;2023-01-05T16:14:16;41.67;;;6.90;;
54259;SDS011;40172;53.022;7.012;2023-01-05T16:17:12;38.08;;;6.60;;
54259;SDS011;40172;53.022;7.012;2023-01-05T16:22:33;38.92;;;7.45;;
54259;SDS011;40172;53.022;7.012;2023-01-05T16:25:22;35.50;;;7.35;;
54259;SDS011;40172;53.022;7.012;2023-01-05T16:28:03;41.47;;;6.88;;
54259;SDS011;40172;53.022;7.012;2023-01-05T16:30:39;46.33;;;7.88;;
54259;SDS011;40172;53.022;7.012;2023-01-05T16:40:35;43.45;;;8.65;;
54259;SDS011;40172;53.022;7.012;2023-01-05T16:43:10;46.42;;;8.07;;
54259;SDS011;40172;53.022;7.012;2023-01-05T16:51:20;41.05;;;7.85;;
54259;SDS011;40172;53.022;7.012;2023-01-05T16:53:49;36.90;;;7.57;;
54259;SDS011;40172;53.022;7.012;2023-01-05T16:56:21;44.55;;;8.57;;
54259;SDS011;40172;53.022;7.012;2023-01-05T16:58:47;44.88;;;7.90;;
54259;SDS011;40172;53.022;7.012;2023-01-05T17:03:44;39.75;;;7.40;;
54259;SDS011;40172;53.022;7.012;2023-01-05T17:08:48;46.45;;;8.50;;
54259;SDS011;40172;53.022;7.012;2023-01-05T17:11:14;40.63;;;7.78;;
54259;SDS011;40172;53.022;7.012;2023-01-05T17:13:41;46.38;;;7.43;;
54259;SDS011;40172;53.022;7.012;2023-01-05T17:16:11;54.25;;;9.13;;
54259;SDS011;40172;53.022;7.012;2023-01-05T17:18:37;47.90;;;9.02;;
54259;SDS011;40172;53.022;7.012;2023-01-05T17:21:04;43.63;;;8.60;;
54259;SDS011;40172;53.022;7.012;2023-01-05T17:25:58;52.63;;;8.20;;
54259;SDS011;40172;53.022;7.012;2023-01-05T17:28:27;51.03;;;7.85;;
54259;SDS011;40172;53.022;7.012;2023-01-05T17:30:52;49.05;;;8.82;;
54259;SDS011;40172;53.022;7.012;2023-01-05T17:33:18;48.50;;;7.45;;
54259;SDS011;40172;53.022;7.012;2023-01-05T17:35:44;45.58;;;7.72;;
54259;SDS011;40172;53.022;7.012;2023-01-05T17:38:11;54.05;;;8.55;;
54259;SDS011;40172;53.022;7.012;2023-01-05T17:40:37;63.35;;;9.82;;
54259;SDS011;40172;53.022;7.012;2023-01-05T17:43:03;53.92;;;8.07;;
54259;SDS011;40172;53.022;7.012;2023-01-05T17:45:28;57.22;;;7.78;;
54259;SDS011;40172;53.022;7.012;2023-01-05T17:47:55;52.25;;;7.88;;
54259;SDS011;40172;53.022;7.012;2023-01-05T17:50:25;45.72;;;7.63;;
54259;SDS011;40172;53.022;7.012;2023-01-05T17:52:54;49.95;;;8.32;;